Terminal Aerodrome Forecast
Issued by NWS

Home | Current Version | Previous Version | Graphics & Text | Print | Product List | Glossary On
Versions: 1 2 3 4 5 6 7 8 9 10 11 12 13
000
FTUS43 KFGF 241722
TAFBJI
TAF
KBJI 241722Z 2418/2518 29014G22KT P6SM BKN250
     FM242100 28015G22KT P6SM BKN060
     FM250000 30011KT P6SM SCT080
     FM250300 27005KT P6SM SCT250=

USA.gov is the U.S. government's official web portal to all federal, state and local government web resources and services.